sensor_id;sensor_type;location;lat;lon;timestamp;P1;durP1;ratioP1;P2;durP2;ratioP2
4642;SDS011;2334;48.710;9.622;2022-09-14T00:02:19;4.67;;;1.97;;
4642;SDS011;2334;48.710;9.622;2022-09-14T00:04:48;1.23;;;1.23;;
4642;SDS011;2334;48.710;9.622;2022-09-14T00:07:15;2.00;;;1.80;;
4642;SDS011;2334;48.710;9.622;2022-09-14T00:09:42;5.80;;;3.83;;
4642;SDS011;2334;48.710;9.622;2022-09-14T00:12:09;2.23;;;1.57;;
4642;SDS011;2334;48.710;9.622;2022-09-14T00:14:36;2.67;;;2.03;;
4642;SDS011;2334;48.710;9.622;2022-09-14T00:17:04;3.00;;;1.80;;
4642;SDS011;2334;48.710;9.622;2022-09-14T00:19:31;7.90;;;1.80;;
4642;SDS011;2334;48.710;9.622;2022-09-14T00:21:59;2.13;;;1.60;;
4642;SDS011;2334;48.710;9.622;2022-09-14T00:24:28;1.93;;;1.50;;
4642;SDS011;2334;48.710;9.622;2022-09-14T00:26:55;4.00;;;1.80;;
4642;SDS011;2334;48.710;9.622;2022-09-14T00:29:22;5.40;;;2.07;;
4642;SDS011;2334;48.710;9.622;2022-09-14T00:31:49;2.30;;;1.43;;
4642;SDS011;2334;48.710;9.622;2022-09-14T00:34:16;1.93;;;1.60;;
4642;SDS011;2334;48.710;9.622;2022-09-14T00:36:44;3.13;;;1.83;;
4642;SDS011;2334;48.710;9.622;2022-09-14T00:39:15;2.00;;;1.90;;
4642;SDS011;2334;48.710;9.622;2022-09-14T00:41:44;2.57;;;1.70;;
4642;SDS011;2334;48.710;9.622;2022-09-14T00:47:16;2.43;;;2.00;;
4642;SDS011;2334;48.710;9.622;2022-09-14T00:49:44;4.13;;;2.07;;
4642;SDS011;2334;48.710;9.622;2022-09-14T00:52:12;2.87;;;2.10;;
4642;SDS011;2334;48.710;9.622;2022-09-14T00:54:44;2.10;;;1.90;;
4642;SDS011;2334;48.710;9.622;2022-09-14T00:57:13;5.30;;;1.90;;
4642;SDS011;2334;48.710;9.622;2022-09-14T00:59:41;10.17;;;2.60;;
4642;SDS011;2334;48.710;9.622;2022-09-14T01:02:10;2.57;;;2.37;;
4642;SDS011;2334;48.710;9.622;2022-09-14T01:04:39;2.57;;;2.30;;
4642;SDS011;2334;48.710;9.622;2022-09-14T01:07:09;3.47;;;2.60;;
4642;SDS011;2334;48.710;9.622;2022-09-14T01:09:46;1.80;;;1.70;;
4642;SDS011;2334;48.710;9.622;2022-09-14T01:12:21;2.97;;;2.23;;
4642;SDS011;2334;48.710;9.622;2022-09-14T01:14:56;5.90;;;2.60;;
4642;SDS011;2334;48.710;9.622;2022-09-14T01:17:29;2.20;;;2.00;;
4642;SDS011;2334;48.710;9.622;2022-09-14T01:20:03;2.33;;;2.13;;
4642;SDS011;2334;48.710;9.622;2022-09-14T01:22:45;2.27;;;2.07;;
4642;SDS011;2334;48.710;9.622;2022-09-14T01:25:24;3.23;;;2.20;;
4642;SDS011;2334;48.710;9.622;2022-09-14T01:28:11;4.50;;;2.50;;
4642;SDS011;2334;48.710;9.622;2022-09-14T01:30:44;4.70;;;2.97;;
4642;SDS011;2334;48.710;9.622;2022-09-14T01:33:13;3.00;;;2.03;;
4642;SDS011;2334;48.710;9.622;2022-09-14T01:35:45;2.73;;;2.30;;
4642;SDS011;2334;48.710;9.622;2022-09-14T01:38:17;3.80;;;2.10;;
4642;SDS011;2334;48.710;9.622;2022-09-14T01:40:46;3.33;;;2.50;;
4642;SDS011;2334;48.710;9.622;2022-09-14T01:43:16;7.30;;;2.73;;
4642;SDS011;2334;48.710;9.622;2022-09-14T01:45:47;23.27;;;2.90;;
4642;SDS011;2334;48.710;9.622;2022-09-14T01:48:18;2.87;;;2.33;;
4642;SDS011;2334;48.710;9.622;2022-09-14T01:50:50;7.73;;;3.10;;
4642;SDS011;2334;48.710;9.622;2022-09-14T01:53:21;7.40;;;4.10;;
4642;SDS011;2334;48.710;9.622;2022-09-14T01:55:53;8.10;;;3.33;;
4642;SDS011;2334;48.710;9.622;2022-09-14T01:58:29;6.50;;;3.23;;
4642;SDS011;2334;48.710;9.622;2022-09-14T02:01:01;15.63;;;3.70;;
4642;SDS011;2334;48.710;9.622;2022-09-14T02:03:30;15.43;;;3.93;;
4642;SDS011;2334;48.710;9.622;2022-09-14T02:06:04;4.90;;;3.10;;
4642;SDS011;2334;48.710;9.622;2022-09-14T02:08:36;12.73;;;4.77;;
4642;SDS011;2334;48.710;9.622;2022-09-14T02:11:03;8.93;;;4.23;;
4642;SDS011;2334;48.710;9.622;2022-09-14T02:13:32;13.93;;;4.97;;
4642;SDS011;2334;48.710;9.622;2022-09-14T02:15:59;14.40;;;4.93;;
4642;SDS011;2334;48.710;9.622;2022-09-14T02:18:26;8.53;;;4.40;;
4642;SDS011;2334;48.710;9.622;2022-09-14T02:20:53;13.83;;;3.97;;
4642;SDS011;2334;48.710;9.622;2022-09-14T02:23:24;14.73;;;4.53;;
4642;SDS011;2334;48.710;9.622;2022-09-14T02:25:51;9.33;;;3.80;;
4642;SDS011;2334;48.710;9.622;2022-09-14T02:28:18;7.60;;;3.67;;
4642;SDS011;2334;48.710;9.622;2022-09-14T02:30:47;4.53;;;3.37;;
4642;SDS011;2334;48.710;9.622;2022-09-14T02:33:23;11.47;;;4.43;;
4642;SDS011;2334;48.710;9.622;2022-09-14T02:35:57;7.77;;;3.87;;
4642;SDS011;2334;48.710;9.622;2022-09-14T02:38:33;10.10;;;5.80;;
4642;SDS011;2334;48.710;9.622;2022-09-14T02:41:08;8.43;;;5.03;;
4642;SDS011;2334;48.710;9.622;2022-09-14T02:43:42;8.63;;;4.50;;
4642;SDS011;2334;48.710;9.622;2022-09-14T02:46:17;9.70;;;4.33;;
4642;SDS011;2334;48.710;9.622;2022-09-14T02:48:51;11.90;;;4.97;;
4642;SDS011;2334;48.710;9.622;2022-09-14T02:51:29;8.27;;;5.73;;
4642;SDS011;2334;48.710;9.622;2022-09-14T02:54:00;7.63;;;4.07;;
4642;SDS011;2334;48.710;9.622;2022-09-14T02:56:31;16.07;;;5.70;;
4642;SDS011;2334;48.710;9.622;2022-09-14T02:59:00;8.60;;;4.70;;
4642;SDS011;2334;48.710;9.622;2022-09-14T03:01:28;17.60;;;5.10;;
4642;SDS011;2334;48.710;9.622;2022-09-14T03:03:55;9.10;;;4.40;;
4642;SDS011;2334;48.710;9.622;2022-09-14T03:06:22;8.50;;;5.73;;
4642;SDS011;2334;48.710;9.622;2022-09-14T03:08:49;6.30;;;4.60;;
4642;SDS011;2334;48.710;9.622;2022-09-14T03:11:16;5.50;;;4.57;;
4642;SDS011;2334;48.710;9.622;2022-09-14T03:13:43;8.30;;;6.70;;
4642;SDS011;2334;48.710;9.622;2022-09-14T03:16:11;7.27;;;3.97;;
4642;SDS011;2334;48.710;9.622;2022-09-14T03:18:40;7.73;;;5.30;;
4642;SDS011;2334;48.710;9.622;2022-09-14T03:21:08;7.10;;;5.60;;
4642;SDS011;2334;48.710;9.622;2022-09-14T03:23:37;8.40;;;4.87;;
4642;SDS011;2334;48.710;9.622;2022-09-14T03:26:06;11.20;;;5.30;;
4642;SDS011;2334;48.710;9.622;2022-09-14T03:28:33;7.57;;;4.70;;
4642;SDS011;2334;48.710;9.622;2022-09-14T03:31:00;8.00;;;5.20;;
4642;SDS011;2334;48.710;9.622;2022-09-14T03:33:28;5.70;;;4.53;;
4642;SDS011;2334;48.710;9.622;2022-09-14T03:35:56;10.17;;;5.33;;
4642;SDS011;2334;48.710;9.622;2022-09-14T03:38:23;6.10;;;4.53;;
4642;SDS011;2334;48.710;9.622;2022-09-14T03:40:54;5.60;;;4.23;;
4642;SDS011;2334;48.710;9.622;2022-09-14T03:43:21;12.60;;;6.50;;
4642;SDS011;2334;48.710;9.622;2022-09-14T03:45:48;9.67;;;5.70;;
4642;SDS011;2334;48.710;9.622;2022-09-14T03:48:15;8.50;;;5.30;;
4642;SDS011;2334;48.710;9.622;2022-09-14T03:50:42;8.47;;;6.33;;
4642;SDS011;2334;48.710;9.622;2022-09-14T03:53:10;7.00;;;5.07;;
4642;SDS011;2334;48.710;9.622;2022-09-14T03:55:38;8.13;;;4.67;;
4642;SDS011;2334;48.710;9.622;2022-09-14T03:58:05;7.63;;;4.83;;
4642;SDS011;2334;48.710;9.622;2022-09-14T04:00:32;10.57;;;7.00;;
4642;SDS011;2334;48.710;9.622;2022-09-14T04:03:00;8.30;;;5.83;;
4642;SDS011;2334;48.710;9.622;2022-09-14T04:05:27;13.63;;;6.33;;
4642;SDS011;2334;48.710;9.622;2022-09-14T04:07:54;12.87;;;6.20;;
4642;SDS011;2334;48.710;9.622;2022-09-14T04:10:22;7.83;;;6.03;;
4642;SDS011;2334;48.710;9.622;2022-09-14T04:12:49;8.70;;;6.30;;
4642;SDS011;2334;48.710;9.622;2022-09-14T04:15:16;13.23;;;6.83;;
4642;SDS011;2334;48.710;9.622;2022-09-14T04:17:43;10.80;;;4.90;;
4642;SDS011;2334;48.710;9.622;2022-09-14T04:20:10;6.93;;;5.30;;
4642;SDS011;2334;48.710;9.622;2022-09-14T04:22:37;10.93;;;4.90;;
4642;SDS011;2334;48.710;9.622;2022-09-14T04:25:04;11.77;;;5.90;;
4642;SDS011;2334;48.710;9.622;2022-09-14T04:27:33;10.80;;;5.73;;
4642;SDS011;2334;48.710;9.622;2022-09-14T04:29:59;7.57;;;5.33;;
4642;SDS011;2334;48.710;9.622;2022-09-14T04:32:26;11.60;;;7.00;;
4642;SDS011;2334;48.710;9.622;2022-09-14T04:34:53;8.80;;;6.30;;
4642;SDS011;2334;48.710;9.622;2022-09-14T04:37:20;8.93;;;5.83;;
4642;SDS011;2334;48.710;9.622;2022-09-14T04:39:47;8.13;;;5.00;;
4642;SDS011;2334;48.710;9.622;2022-09-14T04:42:14;8.90;;;5.93;;
4642;SDS011;2334;48.710;9.622;2022-09-14T04:44:42;7.67;;;4.80;;
4642;SDS011;2334;48.710;9.622;2022-09-14T04:47:09;7.33;;;5.20;;
4642;SDS011;2334;48.710;9.622;2022-09-14T04:49:36;9.03;;;5.43;;
4642;SDS011;2334;48.710;9.622;2022-09-14T04:52:03;11.93;;;6.83;;
4642;SDS011;2334;48.710;9.622;2022-09-14T04:54:30;13.53;;;7.03;;
4642;SDS011;2334;48.710;9.622;2022-09-14T04:56:57;8.60;;;6.27;;
4642;SDS011;2334;48.710;9.622;2022-09-14T04:59:24;7.43;;;6.43;;
4642;SDS011;2334;48.710;9.622;2022-09-14T05:01:52;9.00;;;5.70;;
4642;SDS011;2334;48.710;9.622;2022-09-14T05:04:19;16.17;;;7.13;;
4642;SDS011;2334;48.710;9.622;2022-09-14T05:06:46;18.60;;;8.50;;
4642;SDS011;2334;48.710;9.622;2022-09-14T05:09:14;9.20;;;5.67;;
4642;SDS011;2334;48.710;9.622;2022-09-14T05:11:43;9.10;;;6.90;;
4642;SDS011;2334;48.710;9.622;2022-09-14T05:14:10;9.27;;;6.93;;
4642;SDS011;2334;48.710;9.622;2022-09-14T05:16:38;8.27;;;5.47;;
4642;SDS011;2334;48.710;9.622;2022-09-14T05:19:09;5.67;;;4.70;;
4642;SDS011;2334;48.710;9.622;2022-09-14T05:21:37;7.40;;;5.90;;
4642;SDS011;2334;48.710;9.622;2022-09-14T05:24:05;8.37;;;5.87;;
4642;SDS011;2334;48.710;9.622;2022-09-14T05:26:36;12.63;;;5.40;;
4642;SDS011;2334;48.710;9.622;2022-09-14T05:29:03;13.40;;;6.90;;
4642;SDS011;2334;48.710;9.622;2022-09-14T05:31:30;12.70;;;5.20;;
4642;SDS011;2334;48.710;9.622;2022-09-14T05:33:57;8.07;;;5.07;;
4642;SDS011;2334;48.710;9.622;2022-09-14T05:36:26;7.73;;;6.27;;
4642;SDS011;2334;48.710;9.622;2022-09-14T05:38:53;10.30;;;6.73;;
4642;SDS011;2334;48.710;9.622;2022-09-14T05:41:21;10.93;;;7.30;;
4642;SDS011;2334;48.710;9.622;2022-09-14T05:43:48;10.10;;;6.17;;
4642;SDS011;2334;48.710;9.622;2022-09-14T05:46:16;10.90;;;6.87;;
4642;SDS011;2334;48.710;9.622;2022-09-14T05:48:44;9.17;;;5.43;;
4642;SDS011;2334;48.710;9.622;2022-09-14T05:51:15;9.67;;;6.60;;
4642;SDS011;2334;48.710;9.622;2022-09-14T05:53:47;7.47;;;4.67;;
4642;SDS011;2334;48.710;9.622;2022-09-14T05:56:14;7.00;;;5.50;;
4642;SDS011;2334;48.710;9.622;2022-09-14T05:58:42;12.07;;;6.93;;
4642;SDS011;2334;48.710;9.622;2022-09-14T06:01:11;12.00;;;5.70;;
4642;SDS011;2334;48.710;9.622;2022-09-14T06:03:39;7.97;;;5.17;;
4642;SDS011;2334;48.710;9.622;2022-09-14T06:06:07;7.00;;;5.33;;
4642;SDS011;2334;48.710;9.622;2022-09-14T06:08:36;7.40;;;5.50;;
4642;SDS011;2334;48.710;9.622;2022-09-14T06:11:05;11.33;;;7.40;;
4642;SDS011;2334;48.710;9.622;2022-09-14T06:13:34;9.90;;;5.80;;
4642;SDS011;2334;48.710;9.622;2022-09-14T06:16:01;10.77;;;6.43;;
4642;SDS011;2334;48.710;9.622;2022-09-14T06:18:30;9.80;;;5.57;;
4642;SDS011;2334;48.710;9.622;2022-09-14T06:20:58;9.53;;;5.80;;
4642;SDS011;2334;48.710;9.622;2022-09-14T06:23:25;13.30;;;6.07;;
4642;SDS011;2334;48.710;9.622;2022-09-14T06:25:52;14.27;;;7.73;;
4642;SDS011;2334;48.710;9.622;2022-09-14T06:28:21;14.30;;;6.60;;
4642;SDS011;2334;48.710;9.622;2022-09-14T06:30:48;13.30;;;8.10;;
4642;SDS011;2334;48.710;9.622;2022-09-14T06:33:15;12.10;;;7.50;;
4642;SDS011;2334;48.710;9.622;2022-09-14T06:35:42;11.10;;;6.60;;
4642;SDS011;2334;48.710;9.622;2022-09-14T06:38:10;11.13;;;5.50;;
4642;SDS011;2334;48.710;9.622;2022-09-14T06:40:38;11.20;;;7.10;;
4642;SDS011;2334;48.710;9.622;2022-09-14T06:43:15;9.80;;;5.20;;
4642;SDS011;2334;48.710;9.622;2022-09-14T06:45:43;10.40;;;5.83;;
4642;SDS011;2334;48.710;9.622;2022-09-14T06:48:21;9.80;;;5.03;;
4642;SDS011;2334;48.710;9.622;2022-09-14T06:50:47;10.57;;;5.80;;
4642;SDS011;2334;48.710;9.622;2022-09-14T06:53:15;6.73;;;4.90;;
4642;SDS011;2334;48.710;9.622;2022-09-14T06:55:41;9.07;;;4.80;;
4642;SDS011;2334;48.710;9.622;2022-09-14T06:58:09;8.03;;;4.50;;
4642;SDS011;2334;48.710;9.622;2022-09-14T07:00:36;9.77;;;4.40;;
4642;SDS011;2334;48.710;9.622;2022-09-14T07:03:04;9.80;;;5.03;;
4642;SDS011;2334;48.710;9.622;2022-09-14T07:05:31;3.83;;;3.53;;
4642;SDS011;2334;48.710;9.622;2022-09-14T07:07:58;9.47;;;4.30;;
4642;SDS011;2334;48.710;9.622;2022-09-14T07:10:25;6.07;;;3.90;;
4642;SDS011;2334;48.710;9.622;2022-09-14T07:12:52;6.07;;;3.80;;
4642;SDS011;2334;48.710;9.622;2022-09-14T07:15:19;5.90;;;4.47;;
4642;SDS011;2334;48.710;9.622;2022-09-14T07:17:48;4.43;;;3.77;;
4642;SDS011;2334;48.710;9.622;2022-09-14T07:20:16;4.03;;;3.40;;
4642;SDS011;2334;48.710;9.622;2022-09-14T07:22:43;3.50;;;3.20;;
4642;SDS011;2334;48.710;9.622;2022-09-14T07:25:10;7.80;;;4.53;;
4642;SDS011;2334;48.710;9.622;2022-09-14T07:27:37;6.63;;;4.10;;
4642;SDS011;2334;48.710;9.622;2022-09-14T07:30:04;4.50;;;3.60;;
4642;SDS011;2334;48.710;9.622;2022-09-14T07:32:32;6.80;;;4.03;;
4642;SDS011;2334;48.710;9.622;2022-09-14T07:34:59;4.70;;;3.83;;
4642;SDS011;2334;48.710;9.622;2022-09-14T07:37:29;5.10;;;3.43;;
4642;SDS011;2334;48.710;9.622;2022-09-14T07:39:55;7.93;;;4.13;;
4642;SDS011;2334;48.710;9.622;2022-09-14T07:42:23;7.00;;;4.10;;
4642;SDS011;2334;48.710;9.622;2022-09-14T07:44:49;4.67;;;3.67;;
4642;SDS011;2334;48.710;9.622;2022-09-14T07:47:16;4.53;;;3.77;;
4642;SDS011;2334;48.710;9.622;2022-09-14T07:49:43;11.50;;;4.80;;
4642;SDS011;2334;48.710;9.622;2022-09-14T07:52:10;6.10;;;3.90;;
4642;SDS011;2334;48.710;9.622;2022-09-14T07:54:38;5.20;;;3.80;;
4642;SDS011;2334;48.710;9.622;2022-09-14T07:57:05;5.33;;;3.73;;
4642;SDS011;2334;48.710;9.622;2022-09-14T07:59:32;6.80;;;3.37;;
4642;SDS011;2334;48.710;9.622;2022-09-14T08:01:59;8.40;;;5.27;;
4642;SDS011;2334;48.710;9.622;2022-09-14T08:04:26;5.77;;;4.47;;
4642;SDS011;2334;48.710;9.622;2022-09-14T08:06:56;7.50;;;4.07;;
4642;SDS011;2334;48.710;9.622;2022-09-14T08:09:23;5.77;;;3.97;;
4642;SDS011;2334;48.710;9.622;2022-09-14T08:11:51;4.30;;;3.83;;
4642;SDS011;2334;48.710;9.622;2022-09-14T08:14:18;6.40;;;3.80;;
4642;SDS011;2334;48.710;9.622;2022-09-14T08:16:45;6.80;;;4.33;;
4642;SDS011;2334;48.710;9.622;2022-09-14T08:19:13;3.70;;;3.40;;
4642;SDS011;2334;48.710;9.622;2022-09-14T08:21:42;5.13;;;2.83;;
4642;SDS011;2334;48.710;9.622;2022-09-14T08:24:10;7.73;;;3.20;;
4642;SDS011;2334;48.710;9.622;2022-09-14T08:26:37;5.23;;;3.20;;
4642;SDS011;2334;48.710;9.622;2022-09-14T08:29:06;4.00;;;3.20;;
4642;SDS011;2334;48.710;9.622;2022-09-14T08:31:35;4.57;;;3.13;;
4642;SDS011;2334;48.710;9.622;2022-09-14T08:34:03;10.73;;;3.47;;
4642;SDS011;2334;48.710;9.622;2022-09-14T08:36:31;4.70;;;2.97;;
4642;SDS011;2334;48.710;9.622;2022-09-14T08:38:59;7.00;;;3.20;;
4642;SDS011;2334;48.710;9.622;2022-09-14T08:41:27;4.47;;;2.30;;
4642;SDS011;2334;48.710;9.622;2022-09-14T08:43:58;4.33;;;2.47;;
4642;SDS011;2334;48.710;9.622;2022-09-14T08:46:29;2.77;;;2.50;;
4642;SDS011;2334;48.710;9.622;2022-09-14T08:48:59;6.40;;;2.57;;
4642;SDS011;2334;48.710;9.622;2022-09-14T08:51:29;9.33;;;2.13;;
4642;SDS011;2334;48.710;9.622;2022-09-14T08:53:56;2.97;;;2.63;;
4642;SDS011;2334;48.710;9.622;2022-09-14T08:56:25;2.47;;;2.30;;
4642;SDS011;2334;48.710;9.622;2022-09-14T08:59:10;2.30;;;2.17;;
4642;SDS011;2334;48.710;9.622;2022-09-14T09:01:51;4.70;;;2.13;;
4642;SDS011;2334;48.710;9.622;2022-09-14T09:04:28;5.57;;;3.10;;
4642;SDS011;2334;48.710;9.622;2022-09-14T09:07:04;5.40;;;2.47;;
4642;SDS011;2334;48.710;9.622;2022-09-14T09:09:38;2.47;;;2.13;;
4642;SDS011;2334;48.710;9.622;2022-09-14T09:12:11;6.53;;;2.27;;
4642;SDS011;2334;48.710;9.622;2022-09-14T09:14:41;3.10;;;2.67;;
4642;SDS011;2334;48.710;9.622;2022-09-14T09:17:12;4.20;;;2.47;;
4642;SDS011;2334;48.710;9.622;2022-09-14T09:19:46;5.13;;;2.40;;
4642;SDS011;2334;48.710;9.622;2022-09-14T09:22:22;6.10;;;2.33;;
4642;SDS011;2334;48.710;9.622;2022-09-14T09:24:53;1.93;;;1.80;;
4642;SDS011;2334;48.710;9.622;2022-09-14T09:27:21;2.40;;;2.20;;
4642;SDS011;2334;48.710;9.622;2022-09-14T09:29:50;4.80;;;2.53;;
4642;SDS011;2334;48.710;9.622;2022-09-14T09:32:19;2.67;;;2.33;;
4642;SDS011;2334;48.710;9.622;2022-09-14T09:34:50;2.53;;;2.33;;
4642;SDS011;2334;48.710;9.622;2022-09-14T09:37:22;2.27;;;1.80;;
4642;SDS011;2334;48.710;9.622;2022-09-14T09:39:49;1.90;;;1.80;;
4642;SDS011;2334;48.710;9.622;2022-09-14T09:42:19;3.33;;;2.07;;
4642;SDS011;2334;48.710;9.622;2022-09-14T09:44:52;3.00;;;2.07;;
4642;SDS011;2334;48.710;9.622;2022-09-14T09:47:25;5.27;;;1.80;;
4642;SDS011;2334;48.710;9.622;2022-09-14T09:49:55;3.47;;;2.10;;
4642;SDS011;2334;48.710;9.622;2022-09-14T09:52:24;7.47;;;2.17;;
4642;SDS011;2334;48.710;9.622;2022-09-14T09:54:52;7.00;;;1.73;;
4642;SDS011;2334;48.710;9.622;2022-09-14T09:57:29;2.00;;;1.73;;
4642;SDS011;2334;48.710;9.622;2022-09-14T10:00:07;4.07;;;1.93;;
4642;SDS011;2334;48.710;9.622;2022-09-14T10:02:47;1.87;;;1.77;;
4642;SDS011;2334;48.710;9.622;2022-09-14T10:05:18;2.83;;;2.00;;
4642;SDS011;2334;48.710;9.622;2022-09-14T10:07:51;4.13;;;1.97;;
4642;SDS011;2334;48.710;9.622;2022-09-14T10:10:22;2.43;;;2.23;;
4642;SDS011;2334;48.710;9.622;2022-09-14T10:12:52;3.83;;;2.03;;
4642;SDS011;2334;48.710;9.622;2022-09-14T10:15:21;1.80;;;1.70;;
4642;SDS011;2334;48.710;9.622;2022-09-14T10:17:56;2.10;;;1.83;;
4642;SDS011;2334;48.710;9.622;2022-09-14T10:20:31;5.70;;;2.00;;
4642;SDS011;2334;48.710;9.622;2022-09-14T10:23:13;3.10;;;2.13;;
4642;SDS011;2334;48.710;9.622;2022-09-14T10:25:50;6.30;;;1.83;;
4642;SDS011;2334;48.710;9.622;2022-09-14T10:28:22;3.17;;;2.07;;
4642;SDS011;2334;48.710;9.622;2022-09-14T10:30:52;3.17;;;1.70;;
4642;SDS011;2334;48.710;9.622;2022-09-14T10:33:26;7.93;;;2.27;;
4642;SDS011;2334;48.710;9.622;2022-09-14T10:35:56;2.27;;;2.00;;
4642;SDS011;2334;48.710;9.622;2022-09-14T10:38:31;2.10;;;2.00;;
4642;SDS011;2334;48.710;9.622;2022-09-14T10:41:06;2.40;;;1.83;;
4642;SDS011;2334;48.710;9.622;2022-09-14T10:44:07;1.73;;;1.63;;
4642;SDS011;2334;48.710;9.622;2022-09-14T10:46:54;1.90;;;1.80;;
4642;SDS011;2334;48.710;9.622;2022-09-14T10:49:34;6.03;;;1.80;;
4642;SDS011;2334;48.710;9.622;2022-09-14T10:52:11;5.63;;;1.63;;
4642;SDS011;2334;48.710;9.622;2022-09-14T10:54:49;3.77;;;1.87;;
4642;SDS011;2334;48.710;9.622;2022-09-14T10:57:34;1.47;;;1.20;;
4642;SDS011;2334;48.710;9.622;2022-09-14T11:00:12;1.50;;;1.40;;
4642;SDS011;2334;48.710;9.622;2022-09-14T11:02:48;3.00;;;1.87;;
4642;SDS011;2334;48.710;9.622;2022-09-14T11:05:43;3.80;;;1.80;;
4642;SDS011;2334;48.710;9.622;2022-09-14T11:08:17;4.07;;;2.07;;
4642;SDS011;2334;48.710;9.622;2022-09-14T11:10:51;2.50;;;1.67;;
4642;SDS011;2334;48.710;9.622;2022-09-14T11:13:32;2.50;;;2.00;;
4642;SDS011;2334;48.710;9.622;2022-09-14T11:16:09;1.70;;;1.60;;
4642;SDS011;2334;48.710;9.622;2022-09-14T11:18:49;1.50;;;1.40;;
4642;SDS011;2334;48.710;9.622;2022-09-14T11:21:35;4.00;;;1.80;;
4642;SDS011;2334;48.710;9.622;2022-09-14T11:24:11;1.93;;;1.80;;
4642;SDS011;2334;48.710;9.622;2022-09-14T11:26:43;3.57;;;1.40;;
4642;SDS011;2334;48.710;9.622;2022-09-14T11:29:15;2.23;;;1.77;;
4642;SDS011;2334;48.710;9.622;2022-09-14T11:31:50;2.80;;;1.40;;
4642;SDS011;2334;48.710;9.622;2022-09-14T11:34:20;2.83;;;1.63;;
4642;SDS011;2334;48.710;9.622;2022-09-14T11:36:53;3.10;;;1.40;;
4642;SDS011;2334;48.710;9.622;2022-09-14T11:39:25;4.43;;;1.73;;
4642;SDS011;2334;48.710;9.622;2022-09-14T11:41:55;4.00;;;1.80;;
4642;SDS011;2334;48.710;9.622;2022-09-14T11:44:27;3.80;;;1.40;;
4642;SDS011;2334;48.710;9.622;2022-09-14T11:47:00;2.80;;;1.80;;
4642;SDS011;2334;48.710;9.622;2022-09-14T11:49:33;4.57;;;1.93;;
4642;SDS011;2334;48.710;9.622;2022-09-14T11:52:10;2.90;;;1.77;;
4642;SDS011;2334;48.710;9.622;2022-09-14T11:54:41;3.37;;;1.67;;
4642;SDS011;2334;48.710;9.622;2022-09-14T11:57:12;1.63;;;1.40;;
4642;SDS011;2334;48.710;9.622;2022-09-14T11:59:46;2.40;;;1.47;;
4642;SDS011;2334;48.710;9.622;2022-09-14T12:05:35;7.23;;;2.10;;
4642;SDS011;2334;48.710;9.622;2022-09-14T12:11:00;1.63;;;1.53;;
4642;SDS011;2334;48.710;9.622;2022-09-14T12:13:28;1.93;;;1.67;;
4642;SDS011;2334;48.710;9.622;2022-09-14T12:16:04;7.40;;;2.20;;
4642;SDS011;2334;48.710;9.622;2022-09-14T12:18:33;5.87;;;1.80;;
4642;SDS011;2334;48.710;9.622;2022-09-14T12:21:03;3.70;;;1.77;;
4642;SDS011;2334;48.710;9.622;2022-09-14T12:23:45;2.10;;;1.40;;
4642;SDS011;2334;48.710;9.622;2022-09-14T12:29:05;5.27;;;2.70;;
4642;SDS011;2334;48.710;9.622;2022-09-14T12:31:58;2.63;;;1.90;;
4642;SDS011;2334;48.710;9.622;2022-09-14T12:34:27;2.60;;;1.60;;
4642;SDS011;2334;48.710;9.622;2022-09-14T12:49:02;1.30;;;1.20;;
4642;SDS011;2334;48.710;9.622;2022-09-14T12:51:53;3.90;;;1.67;;
4642;SDS011;2334;48.710;9.622;2022-09-14T12:54:23;5.60;;;1.60;;
4642;SDS011;2334;48.710;9.622;2022-09-14T12:57:06;1.20;;;1.20;;
4642;SDS011;2334;48.710;9.622;2022-09-14T12:59:49;1.70;;;1.30;;
4642;SDS011;2334;48.710;9.622;2022-09-14T13:05:15;4.00;;;1.60;;
4642;SDS011;2334;48.710;9.622;2022-09-14T13:07:44;2.10;;;2.00;;
4642;SDS011;2334;48.710;9.622;2022-09-14T13:10:16;6.30;;;1.90;;
4642;SDS011;2334;48.710;9.622;2022-09-14T13:12:45;3.13;;;1.77;;
4642;SDS011;2334;48.710;9.622;2022-09-14T13:15:17;4.07;;;2.40;;
4642;SDS011;2334;48.710;9.622;2022-09-14T13:17:59;11.10;;;2.30;;
4642;SDS011;2334;48.710;9.622;2022-09-14T13:20:27;4.00;;;2.03;;
4642;SDS011;2334;48.710;9.622;2022-09-14T13:22:55;5.90;;;1.90;;
4642;SDS011;2334;48.710;9.622;2022-09-14T13:25:30;4.53;;;2.13;;
4642;SDS011;2334;48.710;9.622;2022-09-14T13:28:02;3.43;;;2.13;;
4642;SDS011;2334;48.710;9.622;2022-09-14T13:30:31;4.23;;;1.93;;
4642;SDS011;2334;48.710;9.622;2022-09-14T13:33:04;2.43;;;1.73;;
4642;SDS011;2334;48.710;9.622;2022-09-14T13:35:32;2.33;;;2.13;;
4642;SDS011;2334;48.710;9.622;2022-09-14T13:38:04;10.03;;;1.90;;
4642;SDS011;2334;48.710;9.622;2022-09-14T13:40:33;1.93;;;1.83;;
4642;SDS011;2334;48.710;9.622;2022-09-14T13:43:00;4.60;;;1.80;;
4642;SDS011;2334;48.710;9.622;2022-09-14T13:45:27;7.53;;;2.03;;
4642;SDS011;2334;48.710;9.622;2022-09-14T13:47:55;10.33;;;2.20;;
4642;SDS011;2334;48.710;9.622;2022-09-14T13:50:23;1.57;;;1.47;;
4642;SDS011;2334;48.710;9.622;2022-09-14T13:52:52;1.10;;;1.10;;
4642;SDS011;2334;48.710;9.622;2022-09-14T13:55:24;1.33;;;1.23;;
4642;SDS011;2334;48.710;9.622;2022-09-14T14:00:51;3.23;;;2.00;;
4642;SDS011;2334;48.710;9.622;2022-09-14T14:03:28;2.27;;;1.40;;
4642;SDS011;2334;48.710;9.622;2022-09-14T14:06:01;2.53;;;1.63;;
4642;SDS011;2334;48.710;9.622;2022-09-14T14:08:40;3.73;;;1.30;;
4642;SDS011;2334;48.710;9.622;2022-09-14T14:11:07;2.83;;;1.10;;
4642;SDS011;2334;48.710;9.622;2022-09-14T14:13:35;1.87;;;1.30;;
4642;SDS011;2334;48.710;9.622;2022-09-14T14:16:16;5.03;;;1.40;;
4642;SDS011;2334;48.710;9.622;2022-09-14T14:18:49;1.20;;;1.10;;
4642;SDS011;2334;48.710;9.622;2022-09-14T14:21:28;2.57;;;1.60;;
4642;SDS011;2334;48.710;9.622;2022-09-14T14:24:16;1.20;;;1.07;;
4642;SDS011;2334;48.710;9.622;2022-09-14T14:26:50;5.33;;;1.40;;
4642;SDS011;2334;48.710;9.622;2022-09-14T14:29:18;2.00;;;1.30;;
4642;SDS011;2334;48.710;9.622;2022-09-14T14:31:45;2.47;;;1.17;;
4642;SDS011;2334;48.710;9.622;2022-09-14T14:34:17;1.30;;;1.00;;
4642;SDS011;2334;48.710;9.622;2022-09-14T14:36:47;4.60;;;1.20;;
4642;SDS011;2334;48.710;9.622;2022-09-14T14:39:15;1.07;;;1.07;;
4642;SDS011;2334;48.710;9.622;2022-09-14T14:41:43;3.20;;;1.57;;
4642;SDS011;2334;48.710;9.622;2022-09-14T14:44:11;2.47;;;1.43;;
4642;SDS011;2334;48.710;9.622;2022-09-14T14:46:44;1.90;;;1.40;;
4642;SDS011;2334;48.710;9.622;2022-09-14T14:49:11;1.60;;;1.30;;
4642;SDS011;2334;48.710;9.622;2022-09-14T14:51:39;5.13;;;1.03;;
4642;SDS011;2334;48.710;9.622;2022-09-14T14:54:08;2.63;;;1.20;;
4642;SDS011;2334;48.710;9.622;2022-09-14T14:56:35;4.33;;;1.20;;
4642;SDS011;2334;48.710;9.622;2022-09-14T14:59:02;2.20;;;1.13;;
4642;SDS011;2334;48.710;9.622;2022-09-14T15:01:41;3.60;;;1.63;;
4642;SDS011;2334;48.710;9.622;2022-09-14T15:04:08;1.67;;;1.10;;
4642;SDS011;2334;48.710;9.622;2022-09-14T15:06:35;2.70;;;1.30;;
4642;SDS011;2334;48.710;9.622;2022-09-14T15:09:02;0.90;;;0.90;;
4642;SDS011;2334;48.710;9.622;2022-09-14T15:11:35;2.40;;;0.97;;
4642;SDS011;2334;48.710;9.622;2022-09-14T15:14:04;1.30;;;1.20;;
4642;SDS011;2334;48.710;9.622;2022-09-14T15:16:34;1.10;;;1.10;;
4642;SDS011;2334;48.710;9.622;2022-09-14T15:19:01;1.40;;;0.93;;
4642;SDS011;2334;48.710;9.622;2022-09-14T15:21:28;0.80;;;0.80;;
4642;SDS011;2334;48.710;9.622;2022-09-14T15:23:55;2.50;;;0.90;;
4642;SDS011;2334;48.710;9.622;2022-09-14T15:26:22;2.40;;;0.83;;
4642;SDS011;2334;48.710;9.622;2022-09-14T15:28:51;1.10;;;0.97;;
4642;SDS011;2334;48.710;9.622;2022-09-14T15:31:18;0.80;;;0.80;;
4642;SDS011;2334;48.710;9.622;2022-09-14T15:33:45;1.40;;;1.10;;
4642;SDS011;2334;48.710;9.622;2022-09-14T15:36:11;1.10;;;1.00;;
4642;SDS011;2334;48.710;9.622;2022-09-14T15:38:39;0.70;;;0.67;;
4642;SDS011;2334;48.710;9.622;2022-09-14T15:41:07;0.60;;;0.60;;
4642;SDS011;2334;48.710;9.622;2022-09-14T15:43:36;0.80;;;0.80;;
4642;SDS011;2334;48.710;9.622;2022-09-14T15:46:05;0.70;;;0.70;;
4642;SDS011;2334;48.710;9.622;2022-09-14T15:48:32;0.77;;;0.73;;
4642;SDS011;2334;48.710;9.622;2022-09-14T15:50:58;1.17;;;0.50;;
4642;SDS011;2334;48.710;9.622;2022-09-14T15:53:34;1.53;;;0.70;;
4642;SDS011;2334;48.710;9.622;2022-09-14T15:56:04;6.83;;;0.70;;
4642;SDS011;2334;48.710;9.622;2022-09-14T15:58:34;1.10;;;0.60;;
4642;SDS011;2334;48.710;9.622;2022-09-14T16:01:07;0.87;;;0.53;;
4642;SDS011;2334;48.710;9.622;2022-09-14T16:03:34;0.47;;;0.47;;